Time;durP1;ratioP1;P1;durP2;ratioP2;P2;SDS_P1;SDS_P2;PMS_P1;PMS_P2;Temp;Humidity;BMP_temperature;BMP_pressure;BME280_temperature;BME280_humidity;BME280_pressure;Samples;Min_cycle;Max_cycle;Signal;HPM_P1;HPM_P2
2023/07/25 00:01:58;;;;;;;7.57;3.70;;;;;;;12.67;100.00;100525.44;5053574;28;20052;-82
2023/07/25 00:04:26;;;;;;;12.00;3.83;;;;;;;12.62;100.00;100521.94;5049961;28;20041;-81
2023/07/25 00:06:53;;;;;;;9.38;3.67;;;;;;;12.60;100.00;100523.75;5051761;28;20409;-80
2023/07/25 00:09:20;;;;;;;12.45;4.28;;;;;;;12.60;100.00;100529.03;5050286;28;20123;-80
2023/07/25 00:11:48;;;;;;;7.10;3.28;;;;;;;12.57;100.00;100534.31;5036300;28;20056;-81
2023/07/25 00:14:15;;;;;;;8.20;3.08;;;;;;;12.56;100.00;100538.75;5029607;28;20040;-81
2023/07/25 00:16:42;;;;;;;9.35;3.72;;;;;;;12.55;100.00;100538.75;5024959;28;20044;-80
2023/07/25 00:19:10;;;;;;;9.10;3.35;;;;;;;12.53;100.00;100524.69;5065112;28;20391;-80
2023/07/25 00:21:37;;;;;;;12.90;3.80;;;;;;;12.48;100.00;100522.09;5063712;28;20041;-80
2023/07/25 00:24:05;;;;;;;6.72;4.07;;;;;;;12.46;100.00;100526.53;5069556;28;20051;-80
2023/07/25 00:26:32;;;;;;;8.82;3.63;;;;;;;12.43;100.00;100519.47;5056474;28;20056;-80
2023/07/25 00:28:59;;;;;;;7.47;4.05;;;;;;;12.41;100.00;100523.91;5039610;28;20052;-80
2023/07/25 00:31:27;;;;;;;7.18;3.35;;;;;;;12.40;100.00;100516.88;5007139;28;20409;-81
2023/07/25 00:33:54;;;;;;;10.00;3.67;;;;;;;12.36;100.00;100515.19;5040135;28;20055;-81
2023/07/25 00:36:21;;;;;;;11.10;3.25;;;;;;;12.36;100.00;100522.19;5048008;28;20084;-80
2023/07/25 00:38:52;;;;;;;14.60;4.18;;;;;;;12.36;100.00;100517.81;5033194;28;20053;-82
2023/07/25 00:41:19;;;;;;;;;;;;;;;12.35;100.00;100510.78;5048142;28;20060;-80
2023/07/25 00:43:47;;;;;;;11.00;3.60;;;;;;;12.36;100.00;100517.81;5059189;28;20387;-80
2023/07/25 00:46:16;;;;;;;9.63;3.80;;;;;;;12.38;100.00;100509.84;5035639;28;20052;-81
2023/07/25 00:48:44;;;;;;;6.30;3.83;;;;;;;12.33;100.00;100504.63;5052267;28;20060;-79
2023/07/25 00:51:12;;;;;;;7.50;4.57;;;;;;;12.31;100.00;100510.81;5045849;28;20049;-81
2023/07/25 00:53:40;;;;;;;10.63;3.83;;;;;;;12.31;100.00;100508.19;5055101;28;20045;-81
2023/07/25 00:56:09;;;;;;;13.07;3.75;;;;;;;12.28;100.00;100509.94;5055417;28;20485;-80
2023/07/25 00:58:36;;;;;;;11.73;3.83;;;;;;;12.27;100.00;100509.97;5072849;28;20545;-80
2023/07/25 01:01:06;;;;;;;18.30;3.70;;;;;;;12.25;100.00;100506.47;5049180;28;20052;-81
2023/07/25 01:03:36;;;;;;;9.30;3.43;;;;;;;12.25;100.00;100506.47;5018980;28;20048;-82
2023/07/25 01:06:13;;;;;;;6.97;3.50;;;;;;;12.21;100.00;100494.16;5038013;28;20370;-81
2023/07/25 01:08:50;;;;;;;9.15;3.58;;;;;;;12.20;100.00;100497.72;5050295;28;20049;-82
2023/07/25 01:11:19;;;;;;;6.90;3.60;;;;;;;12.18;100.00;100510.06;5052400;28;20056;-80
2023/07/25 01:13:47;;;;;;;12.50;3.78;;;;;;;12.15;100.00;100507.44;5049894;28;20498;-82
2023/07/25 01:16:18;;;;;;;7.55;3.50;;;;;;;12.15;100.00;100504.78;5044812;28;20056;-82
2023/07/25 01:18:47;;;;;;;;;;;;;;;12.13;100.00;100506.56;5035164;28;20041;-80
2023/07/25 01:21:14;;;;;;;4.32;3.00;;;;;;;12.11;100.00;100503.06;5066144;28;19924;-80
2023/07/25 01:23:43;;;;;;;9.23;3.10;;;;;;;12.11;100.00;100505.69;5045191;28;20041;-80
2023/07/25 01:26:10;;;;;;;8.75;3.83;;;;;;;12.10;100.00;100496.91;5051055;28;20049;-80
2023/07/25 01:28:37;;;;;;;8.13;2.90;;;;;;;12.09;100.00;100503.94;5061006;28;20482;-80
2023/07/25 01:31:05;;;;;;;6.40;3.00;;;;;;;12.06;100.00;100504.00;5040233;28;20049;-80
2023/07/25 01:33:32;;;;;;;7.63;3.30;;;;;;;12.05;100.00;100510.13;5016390;28;20311;-80
2023/07/25 01:36:01;;;;;;;5.80;3.08;;;;;;;12.03;100.00;100511.91;5063123;28;20048;-80
2023/07/25 01:38:28;;;;;;;9.80;4.22;;;;;;;12.03;100.00;100511.91;5051166;28;20059;-80
2023/07/25 01:40:55;;;;;;;6.43;3.20;;;;;;;12.06;100.00;100517.19;5037696;28;20056;-80
2023/07/25 01:43:23;;;;;;;6.30;3.50;;;;;;;12.06;100.00;100514.56;5049440;28;20498;-80
2023/07/25 01:45:50;;;;;;;8.90;3.47;;;;;;;12.03;100.00;100517.19;5039136;28;20052;-80
2023/07/25 01:48:18;;;;;;;8.38;3.35;;;;;;;12.01;100.00;100511.06;5035994;28;20044;-82
2023/07/25 01:50:45;;;;;;;8.48;3.40;;;;;;;12.04;100.00;100518.06;5024207;28;20426;-80
2023/07/25 01:53:13;;;;;;;10.93;3.95;;;;;;;12.04;100.00;100512.78;5053095;28;20064;-80
2023/07/25 01:55:40;;;;;;;8.10;3.40;;;;;;;12.01;100.00;100503.13;5071022;28;20037;-81
2023/07/25 01:58:08;;;;;;;9.63;3.42;;;;;;;12.01;100.00;100500.50;5054010;28;20064;-80
2023/07/25 02:00:35;;;;;;;11.32;3.40;;;;;;;12.05;100.00;100504.00;5054137;28;20041;-80
2023/07/25 02:03:04;;;;;;;15.40;4.13;;;;;;;12.07;100.00;100507.50;5035623;28;20402;-81
2023/07/25 02:05:32;;;;;;;8.27;3.17;;;;;;;12.09;100.00;100505.72;5017656;28;20063;-81
2023/07/25 02:08:00;;;;;;;7.22;3.67;;;;;;;12.10;100.00;100507.47;5040138;28;20048;-81
2023/07/25 02:10:29;;;;;;;12.27;4.43;;;;;;;12.11;100.00;100508.34;5038661;28;20055;-81
2023/07/25 02:12:57;;;;;;;9.68;3.92;;;;;;;12.11;100.00;100514.50;5053285;28;20414;-81
2023/07/25 02:15:24;;;;;;;8.10;3.38;;;;;;;12.14;100.00;100518.91;5047393;28;20048;-82
2023/07/25 02:17:53;;;;;;;13.02;4.45;;;;;;;12.14;100.00;100518.91;5041602;28;20055;-82
2023/07/25 02:20:22;;;;;;;9.68;3.42;;;;;;;12.14;100.00;100517.13;5022998;28;20052;-79
2023/07/25 02:22:50;;;;;;;11.80;3.97;;;;;;;12.16;100.00;100519.75;5073500;28;20379;-81
2023/07/25 02:25:17;;;;;;;11.20;3.92;;;;;;;12.19;100.00;100511.78;5038518;28;20032;-81
2023/07/25 02:27:46;;;;;;;7.13;3.58;;;;;;;12.21;100.00;100520.56;5035927;28;20060;-81
2023/07/25 02:30:15;;;;;;;7.22;3.30;;;;;;;12.21;100.00;100510.91;5053321;28;20052;-81
2023/07/25 02:32:42;;;;;;;8.05;3.53;;;;;;;12.24;100.00;100512.63;5066385;28;20057;-81
2023/07/25 02:35:10;;;;;;;8.77;3.45;;;;;;;12.25;100.00;100514.41;5072331;28;20043;-82
2023/07/25 02:37:37;;;;;;;14.68;4.30;;;;;;;12.27;100.00;100517.91;5053884;28;20045;-81
2023/07/25 02:40:06;;;;;;;12.65;3.47;;;;;;;12.28;100.00;100525.78;5072406;28;20052;-81
2023/07/25 02:42:34;;;;;;;9.45;3.47;;;;;;;12.31;100.00;100516.09;5038440;28;20429;-81
2023/07/25 02:45:02;;;;;;;4.88;2.92;;;;;;;12.34;100.00;100522.22;5069209;28;20036;-81
2023/07/25 02:47:29;;;;;;;5.82;3.83;;;;;;;12.39;100.00;100520.41;5051164;28;20045;-81
2023/07/25 02:49:56;;;;;;;6.63;3.55;;;;;;;12.41;100.00;100512.47;5046198;28;20056;-81
2023/07/25 02:52:24;;;;;;;7.65;3.67;;;;;;;12.45;100.00;100520.34;5024725;28;20711;-81
2023/07/25 02:54:51;;;;;;;7.28;3.55;;;;;;;12.48;100.00;100525.63;5065392;28;20060;-81
2023/07/25 02:57:20;;;;;;;6.55;3.42;;;;;;;12.53;100.00;100525.56;5050212;28;20053;-82
2023/07/25 02:59:47;;;;;;;8.57;3.15;;;;;;;12.57;100.00;100532.59;5048764;28;20059;-80
2023/07/25 03:02:15;;;;;;;6.05;3.28;;;;;;;12.62;100.00;100528.09;5073147;28;20044;-81
2023/07/25 03:04:42;;;;;;;6.18;2.72;;;;;;;12.66;100.00;100531.59;5035945;28;20052;-79
2023/07/25 03:07:09;;;;;;;12.68;3.40;;;;;;;12.72;100.00;100522.72;4992651;28;20049;-82
2023/07/25 03:09:37;;;;;;;5.00;2.70;;;;;;;12.77;100.00;100516.50;5068739;28;20055;-80
2023/07/25 03:12:05;;;;;;;6.72;3.00;;;;;;;12.80;100.00;100515.59;5050624;28;20045;-79
2023/07/25 03:14:32;;;;;;;6.32;2.72;;;;;;;12.83;100.00;100516.41;5032366;28;20064;-80
2023/07/25 03:17:00;;;;;;;4.60;3.13;;;;;;;12.87;100.00;100515.50;5062136;28;20048;-80
2023/07/25 03:19:27;;;;;;;9.20;2.80;;;;;;;12.91;100.00;100513.72;5056963;28;21234;-79
2023/07/25 03:21:54;;;;;;;7.18;2.63;;;;;;;12.94;100.00;100512.78;4983692;28;20045;-82
2023/07/25 03:24:22;;;;;;;4.00;2.38;;;;;;;12.97;100.00;100518.06;5046336;28;20049;-81
2023/07/25 03:26:51;;;;;;;6.00;2.88;;;;;;;12.99;100.00;100525.06;5058282;28;20057;-81
2023/07/25 03:29:19;;;;;;;5.75;2.40;;;;;;;13.00;100.00;100516.22;5051120;28;20044;-81
2023/07/25 03:31:47;;;;;;;4.75;2.55;;;;;;;13.04;100.00;100509.13;5038014;28;20045;-81
2023/07/25 03:34:15;;;;;;;8.50;2.78;;;;;;;13.07;100.00;100517.03;5067766;28;20053;-81
2023/07/25 03:36:43;;;;;;;12.25;3.28;;;;;;;13.07;100.00;100522.31;5019060;28;21271;-82
2023/07/25 03:39:10;;;;;;;6.60;2.40;;;;;;;13.10;100.00;100518.75;5050725;28;20040;-81
2023/07/25 03:41:38;;;;;;;11.30;3.28;;;;;;;13.10;100.00;100517.00;5025283;28;20049;-81
2023/07/25 03:44:05;;;;;;;9.05;2.67;;;;;;;13.13;100.00;100513.44;5059537;28;20053;-81
2023/07/25 03:46:33;;;;;;;4.55;2.20;;;;;;;13.14;100.00;100525.78;5046951;28;20055;-81
2023/07/25 03:49:01;;;;;;;2.78;2.42;;;;;;;13.16;100.00;100516.06;5043313;28;20049;-81
2023/07/25 03:51:29;;;;;;;4.15;2.22;;;;;;;13.19;100.00;100518.66;5042478;28;20044;-81
2023/07/25 03:53:56;;;;;;;8.55;2.63;;;;;;;13.19;100.00;100523.94;5040377;28;20049;-80
2023/07/25 03:56:24;;;;;;;5.43;2.35;;;;;;;13.21;100.00;100528.34;5068319;28;20053;-82
2023/07/25 03:58:51;;;;;;;9.00;3.30;;;;;;;13.21;100.00;100538.00;5056776;28;20048;-81
2023/07/25 04:01:19;;;;;;;5.25;2.67;;;;;;;13.21;100.00;100528.34;5053892;28;20047;-80
2023/07/25 04:03:46;;;;;;;7.25;2.55;;;;;;;13.23;100.00;100528.28;5046802;28;20055;-80
2023/07/25 04:06:14;;;;;;;6.47;2.40;;;;;;;13.24;100.00;100522.97;5026794;28;20425;-80
2023/07/25 04:08:41;;;;;;;6.93;2.67;;;;;;;13.27;100.00;100527.38;5049756;28;20059;-81
2023/07/25 04:11:09;;;;;;;4.63;2.53;;;;;;;13.31;100.00;100537.06;5055221;28;20049;-81
2023/07/25 04:13:36;;;;;;;7.20;2.40;;;;;;;13.35;100.00;100527.31;5068334;28;20111;-82
2023/07/25 04:16:04;;;;;;;4.45;2.22;;;;;;;13.36;100.00;100523.75;5058103;28;20051;-80
2023/07/25 04:18:32;;;;;;;7.82;2.50;;;;;;;13.39;100.00;100531.66;5063530;28;20053;-78
2023/07/25 04:20:59;;;;;;;6.47;2.58;;;;;;;13.41;100.00;100538.66;5028744;28;20072;-78
2023/07/25 04:23:27;;;;;;;7.25;2.47;;;;;;;13.42;100.00;100529.84;5052379;28;20056;-76
2023/07/25 04:25:56;;;;;;;8.48;2.40;;;;;;;13.44;100.00;100537.78;5013329;28;20048;-78
2023/07/25 04:28:23;;;;;;;8.95;3.78;;;;;;;13.47;100.00;100534.19;5061327;28;20056;-78
2023/07/25 04:30:52;;;;;;;9.77;2.80;;;;;;;13.48;100.00;100535.94;5071924;28;20068;-79
2023/07/25 04:33:20;;;;;;;5.70;2.10;;;;;;;13.49;100.00;100541.22;5042060;28;20501;-79
2023/07/25 04:35:47;;;;;;;6.75;2.22;;;;;;;13.50;100.00;100544.75;5058384;28;20056;-77
2023/07/25 04:38:16;;;;;;;8.38;2.72;;;;;;;13.50;100.00;100542.13;5027578;28;20420;-79
2023/07/25 04:40:44;;;;;;;10.27;2.40;;;;;;;13.51;100.00;100544.72;5014071;28;20061;-78
2023/07/25 04:43:11;;;;;;;6.93;3.38;;;;;;;13.53;100.00;100547.34;5072731;28;20051;-78
2023/07/25 04:45:40;;;;;;;9.13;2.35;;;;;;;13.54;100.00;100557.06;5076016;28;20049;-78
2023/07/25 04:48:08;;;;;;;7.85;2.20;;;;;;;13.53;100.00;100556.16;5057452;28;20056;-78
2023/07/25 04:50:35;;;;;;;6.45;1.92;;;;;;;13.52;100.00;100545.59;5083959;28;20060;-77
2023/07/25 04:53:04;;;;;;;9.13;2.20;;;;;;;13.54;100.00;100554.41;5062641;28;20044;-78
2023/07/25 04:55:31;;;;;;;8.57;2.30;;;;;;;13.57;100.00;100555.25;4989801;28;20056;-78
2023/07/25 04:57:59;;;;;;;10.38;2.55;;;;;;;13.59;100.00;100561.38;5050825;28;20052;-77
2023/07/25 05:00:26;;;;;;;6.47;2.00;;;;;;;13.59;100.00;100552.53;5064895;28;20123;-79
2023/07/25 05:02:58;;;;;;;7.78;2.60;;;;;;;13.58;100.00;100553.47;5036387;28;20045;-79
2023/07/25 05:05:26;;;;;;;6.50;2.63;;;;;;;13.58;100.00;100551.69;5052855;28;20547;-77
2023/07/25 05:07:53;;;;;;;10.93;3.20;;;;;;;13.61;100.00;100556.03;5053604;28;20052;-77
2023/07/25 05:10:21;;;;;;;3.92;1.98;;;;;;;13.64;100.00;100558.66;5034088;28;20048;-77
2023/07/25 05:12:48;;;;;;;9.75;1.70;;;;;;;13.69;100.00;100556.84;5059438;28;20056;-78
2023/07/25 05:15:16;;;;;;;10.63;2.00;;;;;;;13.72;100.00;100550.59;5046524;28;20481;-78
2023/07/25 05:17:44;;;;;;;5.05;2.20;;;;;;;14.17;100.00;100549.00;5064239;28;20056;-78
2023/07/25 05:20:12;;;;;;;10.90;2.95;;;;;;;14.81;100.00;100544.38;5051145;28;20074;-77
2023/07/25 05:22:40;;;;;;;8.02;2.65;;;;;;;15.47;100.00;100550.13;5060620;28;20052;-78
2023/07/25 05:25:10;;;;;;;4.53;2.10;;;;;;;16.20;100.00;100549.38;5015251;28;20045;-77
2023/07/25 05:27:40;;;;;;;1.65;1.40;;;;;;;17.07;100.00;100555.94;5044866;28;20421;-78
2023/07/25 05:30:07;;;;;;;2.58;1.30;;;;;;;17.83;100.00;100560.81;5074807;28;20036;-77
2023/07/25 05:32:35;;;;;;;5.15;1.73;;;;;;;18.55;100.00;100556.72;5064124;28;20199;-78
2023/07/25 05:35:04;;;;;;;4.40;1.38;;;;;;;19.16;100.00;100551.88;5065322;28;20055;-77
2023/07/25 05:37:39;;;;;;;3.47;1.20;;;;;;;19.54;100.00;100562.03;5052560;28;20055;-78
2023/07/25 05:40:06;;;;;;;3.47;1.52;;;;;;;19.64;100.00;100558.06;5075250;28;20804;-78
2023/07/25 05:42:34;;;;;;;5.40;1.50;;;;;;;19.99;100.00;100563.88;5011803;28;20045;-77
2023/07/25 05:45:04;;;;;;;7.78;1.50;;;;;;;20.33;100.00;100562.47;5082563;28;20513;-77
2023/07/25 05:47:32;;;;;;;6.72;1.58;;;;;;;20.74;100.00;100558.06;5062137;28;20056;-77
2023/07/25 05:50:00;;;;;;;3.50;1.17;;;;;;;20.84;100.00;100555.84;5074360;28;20045;-78
2023/07/25 05:52:27;;;;;;;6.43;1.35;;;;;;;20.53;100.00;100564.28;5058804;28;20055;-78
2023/07/25 05:54:54;;;;;;;3.72;1.35;;;;;;;20.18;100.00;100564.84;5055199;28;20132;-78
2023/07/25 05:57:22;;;;;;;5.22;1.77;;;;;;;19.83;100.00;100566.28;5009121;28;20060;-79
2023/07/25 05:59:50;;;;;;;4.93;1.70;;;;;;;19.48;100.00;100566.69;5079566;28;20048;-76
2023/07/25 06:02:21;;;;;;;2.63;1.38;;;;;;;19.17;100.00;100560.75;5053826;28;20544;-78
2023/07/25 06:04:48;;;;;;;4.78;1.48;;;;;;;18.92;100.00;100571.47;5078709;28;20049;-77
2023/07/25 06:07:17;;;;;;;4.55;1.60;;;;;;;18.76;100.00;100563.09;5041663;28;20524;-78
2023/07/25 06:09:47;;;;;;;6.15;1.63;;;;;;;18.81;100.00;100571.81;5071630;28;20044;-79
2023/07/25 06:12:16;;;;;;;7.57;2.25;;;;;;;18.77;100.00;100564.84;5041251;28;20027;-78
2023/07/25 06:14:45;;;;;;;6.40;1.10;;;;;;;18.76;100.00;100573.78;5015650;28;20405;-79
2023/07/25 06:17:13;;;;;;;7.78;1.77;;;;;;;18.78;100.00;100579.94;5029166;28;20064;-80
2023/07/25 06:19:40;;;;;;;5.25;1.60;;;;;;;18.95;100.00;100574.91;5056537;28;20052;-79
2023/07/25 06:22:08;;;;;;;3.85;1.50;;;;;;;18.93;100.00;100571.41;5032849;28;20053;-77
2023/07/25 06:24:36;;;;;;;5.03;1.85;;;;;;;18.90;100.00;100568.84;5053449;28;20052;-78
2023/07/25 06:27:05;;;;;;;4.65;1.30;;;;;;;18.81;100.00;100566.50;5049235;28;20052;-77
2023/07/25 06:29:33;;;;;;;3.95;1.45;;;;;;;18.74;100.00;100572.97;5004231;28;20673;-77
2023/07/25 06:32:00;;;;;;;6.07;1.17;;;;;;;18.52;100.00;100571.03;5049891;28;20771;-78
2023/07/25 06:34:28;;;;;;;3.60;1.38;;;;;;;18.39;100.00;100567.03;5046123;28;20053;-78
2023/07/25 06:36:55;;;;;;;6.25;1.63;;;;;;;18.25;100.00;100563.03;5074338;28;20060;-78
2023/07/25 06:39:23;;;;;;;3.55;1.15;;;;;;;18.07;100.00;100568.94;5062450;28;20044;-78
2023/07/25 06:41:52;;;;;;;5.43;1.80;;;;;;;17.99;100.00;100568.34;5049601;28;20044;-78
2023/07/25 06:44:20;;;;;;;7.47;1.60;;;;;;;17.95;100.00;100564.91;5039438;28;20041;-78
2023/07/25 06:46:49;;;;;;;2.50;1.20;;;;;;;17.97;100.00;100568.38;5006010;28;20060;-78
2023/07/25 06:49:16;;;;;;;6.43;1.92;;;;;;;17.87;100.00;100567.81;5032555;28;20079;-77
2023/07/25 06:51:44;;;;;;;4.30;1.60;;;;;;;17.78;100.00;100561.88;5052747;28;20052;-78
2023/07/25 06:54:15;;;;;;;5.88;1.65;;;;;;;17.80;100.00;100568.88;5038640;28;20049;-78
2023/07/25 06:56:43;;;;;;;7.85;1.70;;;;;;;17.87;100.00;100570.47;5067558;28;20056;-77
2023/07/25 06:59:11;;;;;;;1.98;1.20;;;;;;;17.91;100.00;100566.78;5047906;28;20501;-78
2023/07/25 07:01:38;;;;;;;7.40;1.40;;;;;;;17.96;100.00;100563.09;5023528;28;20414;-79
2023/07/25 07:04:06;;;;;;;3.65;1.40;;;;;;;18.03;100.00;100564.66;5053948;28;20055;-78
2023/07/25 07:06:34;;;;;;;4.93;1.30;;;;;;;18.11;100.00;100566.16;5052977;28;20044;-79
2023/07/25 07:09:01;;;;;;;4.53;1.10;;;;;;;18.16;100.00;100562.47;5049553;28;20143;-77
2023/07/25 07:11:29;;;;;;;3.35;1.23;;;;;;;18.04;100.00;100571.75;5066558;28;20122;-79
2023/07/25 07:13:58;;;;;;;5.13;1.40;;;;;;;17.85;100.00;100572.31;5062630;28;20044;-77
2023/07/25 07:16:26;;;;;;;5.30;1.30;;;;;;;17.65;100.00;100578.22;5036295;28;20052;-79
2023/07/25 07:18:53;;;;;;;4.25;1.10;;;;;;;17.57;100.00;100574.06;5022752;28;20522;-78
2023/07/25 07:21:21;;;;;;;4.50;1.48;;;;;;;17.55;100.00;100571.44;5051608;28;21053;-78
2023/07/25 07:23:48;;;;;;;3.38;1.05;;;;;;;17.56;100.00;100574.97;5048740;28;20035;-78
2023/07/25 07:26:18;;;;;;;4.15;0.93;;;;;;;17.44;100.00;100571.75;5041552;28;20052;-78
2023/07/25 07:28:46;;;;;;;2.80;1.05;;;;;;;17.39;100.00;100573.69;5060758;28;20036;-78
2023/07/25 07:31:15;;;;;;;2.65;1.30;;;;;;;17.46;100.00;100572.56;5061283;28;20072;-77
2023/07/25 07:33:42;;;;;;;3.45;1.20;;;;;;;17.54;100.00;100573.22;5016312;28;20595;-78
2023/07/25 07:36:10;;;;;;;4.78;1.35;;;;;;;17.61;100.00;100570.38;5064706;28;20040;-77
2023/07/25 07:38:37;;;;;;;4.32;1.20;;;;;;;17.72;100.00;100581.56;5050915;28;20063;-78
2023/07/25 07:41:04;;;;;;;5.82;0.80;;;;;;;17.82;100.00;100582.16;5068244;28;20486;-78
2023/07/25 07:43:32;;;;;;;3.17;1.10;;;;;;;17.89;100.00;100579.28;5064174;28;20049;-78
2023/07/25 07:46:00;;;;;;;5.28;1.33;;;;;;;17.92;100.00;100581.00;5025054;28;20056;-77
2023/07/25 07:48:28;;;;;;;8.68;1.38;;;;;;;17.94;100.00;100587.16;5030706;28;20064;-78
2023/07/25 07:50:55;;;;;;;3.35;1.60;;;;;;;17.92;100.00;100581.88;5072638;28;20049;-77
2023/07/25 07:53:23;;;;;;;4.05;1.48;;;;;;;17.86;100.00;100582.06;5054574;28;20056;-77
2023/07/25 07:55:52;;;;;;;3.80;1.05;;;;;;;17.85;100.00;100588.31;5054750;28;20053;-79
2023/07/25 07:58:22;;;;;;;4.18;1.52;;;;;;;17.89;100.00;100586.41;5051761;28;20068;-80
2023/07/25 08:00:49;;;;;;;3.90;0.90;;;;;;;18.01;100.00;100593.16;5053496;28;20482;-79
2023/07/25 08:03:16;;;;;;;4.18;1.00;;;;;;;18.09;100.00;100592.00;5039827;28;20049;-80
2023/07/25 08:05:45;;;;;;;6.68;1.02;;;;;;;18.02;100.00;100593.13;5036534;28;20052;-79
2023/07/25 08:08:14;;;;;;;3.78;1.10;;;;;;;17.95;100.00;100602.22;5056189;28;20065;-79
2023/07/25 08:10:43;;;;;;;3.30;0.80;;;;;;;17.89;100.00;100591.75;5062600;28;20040;-79
2023/07/25 08:13:12;;;;;;;8.80;1.40;;;;;;;17.88;100.00;100584.66;5077642;28;20051;-80
2023/07/25 08:15:40;;;;;;;3.75;1.65;;;;;;;17.93;100.00;100596.94;5035840;28;20333;-79
2023/07/25 08:18:09;;;;;;;5.22;1.20;;;;;;;17.98;100.00;100599.47;5033762;28;20057;-79
2023/07/25 08:20:37;;;;;;;2.85;1.13;;;;;;;18.01;100.00;100606.47;5017536;28;20055;-78
2023/07/25 08:23:05;;;;;;;2.15;0.95;;;;;;;18.02;100.00;100619.78;5070189;28;20044;-78
2023/07/25 08:25:32;;;;;;;6.90;1.20;;;;;;;18.01;100.00;100610.00;5064618;28;20045;-78
2023/07/25 08:28:00;;;;;;;6.47;1.20;;;;;;;18.02;100.00;100610.91;5043309;28;20394;-79
2023/07/25 08:30:28;;;;;;;3.00;0.93;;;;;;;18.17;100.00;100606.88;5038836;28;20808;-78
2023/07/25 08:32:55;;;;;;;4.50;1.42;;;;;;;18.37;100.00;100615.09;5048023;28;20504;-79
2023/07/25 08:35:23;;;;;;;4.15;1.48;;;;;;;18.36;100.00;100616.03;5016877;28;20044;-79
2023/07/25 08:37:51;;;;;;;2.95;0.75;;;;;;;18.25;100.00;100621.69;5049862;28;20044;-78
2023/07/25 08:40:19;;;;;;;3.65;1.00;;;;;;;18.14;100.00;100626.50;5043626;28;20056;-80
2023/07/25 08:42:49;;;;;;;2.45;0.88;;;;;;;18.09;100.00;100624.00;5033086;28;20071;-79
2023/07/25 08:45:19;;;;;;;3.03;1.07;;;;;;;18.15;100.00;100617.59;5050915;28;20049;-79
2023/07/25 08:47:49;;;;;;;3.25;1.23;;;;;;;18.18;99.68;100620.16;5042185;28;20508;-79
2023/07/25 08:50:17;;;;;;;;;;;;;;;18.24;95.55;100624.41;5020692;28;20060;-79
2023/07/25 08:52:52;;;;;;;1.00;0.75;;;;;;;18.22;99.90;100624.50;5049072;28;19932;-78
2023/07/25 08:55:20;;;;;;;2.90;0.70;;;;;;;18.14;99.76;100631.84;5055347;28;20418;-80
2023/07/25 08:57:51;;;;;;;3.90;0.90;;;;;;;18.11;99.47;100631.97;5036452;28;20060;-79
2023/07/25 09:00:21;;;;;;;1.50;0.80;;;;;;;18.16;99.66;100623.78;5049334;28;20057;-79
2023/07/25 09:02:51;;;;;;;0.73;0.70;;;;;;;18.27;99.08;100633.19;5035780;28;20060;-79
2023/07/25 09:05:22;;;;;;;2.90;0.85;;;;;;;18.25;97.50;100631.50;5051217;28;20029;-80
2023/07/25 09:07:53;;;;;;;1.98;1.17;;;;;;;18.33;99.50;100629.44;5045316;28;20037;-77
2023/07/25 09:10:21;;;;;;;6.15;0.93;;;;;;;18.46;99.46;100632.59;5032153;28;20064;-78
2023/07/25 09:12:49;;;;;;;3.90;0.90;;;;;;;18.57;97.89;100635.78;5047305;28;20047;-78
2023/07/25 09:15:16;;;;;;;3.92;0.82;;;;;;;18.72;97.55;100641.53;5073519;28;20127;-79
2023/07/25 09:17:45;;;;;;;0.73;0.70;;;;;;;18.83;98.04;100644.75;5045746;28;20057;-79
2023/07/25 09:20:12;;;;;;;2.10;0.88;;;;;;;18.89;96.76;100648.06;5048457;28;20057;-78
2023/07/25 09:22:46;;;;;;;4.03;0.80;;;;;;;18.85;97.37;100645.56;5023488;28;20059;-78
2023/07/25 09:25:15;;;;;;;4.22;1.10;;;;;;;18.84;97.14;100646.47;5083188;28;20088;-78
2023/07/25 09:27:45;;;;;;;1.97;0.90;;;;;;;18.81;96.80;100646.56;5054724;28;20044;-79
2023/07/25 09:30:14;;;;;;;4.15;0.82;;;;;;;18.79;95.82;100648.38;5071222;28;20497;-78
2023/07/25 09:32:48;;;;;;;2.92;0.95;;;;;;;18.84;96.49;100646.47;5068908;28;20051;-79
2023/07/25 09:35:16;;;;;;;3.42;1.15;;;;;;;18.82;96.44;100659.88;5046216;28;20043;-79
2023/07/25 09:37:51;;;;;;;3.92;1.02;;;;;;;18.73;93.98;100660.16;5040184;28;20037;-79
2023/07/25 09:40:21;;;;;;;2.38;0.80;;;;;;;18.70;96.70;100658.47;5056543;28;20059;-79
2023/07/25 09:42:51;;;;;;;3.70;1.25;;;;;;;18.68;95.21;100667.47;5071557;28;20355;-78
2023/07/25 09:45:19;;;;;;;4.10;1.23;;;;;;;18.72;96.07;100650.41;5046438;28;20489;-79
2023/07/25 09:47:51;;;;;;;3.65;1.15;;;;;;;18.85;95.65;100653.59;5050531;28;20045;-79
2023/07/25 09:50:26;;;;;;;4.22;0.98;;;;;;;19.01;95.86;100667.25;5053280;28;20053;-79
2023/07/25 09:52:53;;;;;;;1.63;0.80;;;;;;;18.99;96.43;100669.97;5022935;28;20057;-79
2023/07/25 09:55:22;;;;;;;3.55;0.98;;;;;;;18.93;96.49;100675.53;5056717;28;20057;-78
2023/07/25 09:57:51;;;;;;;1.98;1.05;;;;;;;18.86;96.13;100676.66;5046101;28;20044;-79
2023/07/25 10:00:18;;;;;;;2.00;0.90;;;;;;;18.86;96.62;100676.66;5071075;28;20059;-78
2023/07/25 10:02:48;;;;;;;1.42;0.90;;;;;;;18.89;97.11;100681.91;5067829;28;20495;-77
2023/07/25 10:05:16;;;;;;;1.70;1.00;;;;;;;18.86;95.45;100676.66;5052896;28;20421;-79
2023/07/25 10:07:47;;;;;;;5.72;0.95;;;;;;;18.77;95.85;100672.50;5060942;28;21308;-77
2023/07/25 10:10:15;;;;;;;2.95;0.68;;;;;;;18.70;96.38;100685.16;5002203;28;20063;-78
2023/07/25 10:12:45;;;;;;;3.20;1.00;;;;;;;18.62;95.77;100695.22;5076147;28;20059;-78
2023/07/25 10:15:13;;;;;;;2.03;0.90;;;;;;;18.55;95.37;100691.00;5054140;28;20523;-78
2023/07/25 10:17:45;;;;;;;4.72;1.13;;;;;;;18.51;96.64;100687.56;5039962;28;20036;-78
2023/07/25 10:20:22;;;;;;;4.68;0.93;;;;;;;18.48;95.38;100678.78;5053676;28;20044;-78
2023/07/25 10:22:51;;;;;;;3.10;1.00;;;;;;;18.45;97.65;100684.19;5056594;28;20052;-77
2023/07/25 10:25:38;;;;;;;5.15;1.50;;;;;;;18.39;96.62;100690.63;5023102;28;20059;-79
2023/07/25 10:28:06;;;;;;;3.92;1.00;;;;;;;18.47;97.76;100693.06;5049507;28;20044;-80
2023/07/25 10:30:45;;;;;;;1.88;0.90;;;;;;;18.49;95.24;100689.41;5049940;28;20044;-77
2023/07/25 10:33:14;;;;;;;3.63;1.10;;;;;;;18.48;96.46;100686.78;5058331;28;20052;-79
2023/07/25 10:35:54;;;;;;;4.43;0.85;;;;;;;18.37;93.53;100692.44;5048350;28;20036;-78
2023/07/25 10:38:42;;;;;;;4.80;1.10;;;;;;;18.29;95.01;100691.81;5040147;28;20051;-77
2023/07/25 10:41:16;;;;;;;4.95;1.00;;;;;;;18.18;96.15;100678.81;5018135;28;20056;-78
2023/07/25 10:43:44;;;;;;;1.42;0.82;;;;;;;18.14;96.94;100687.84;5067470;28;20063;-78
2023/07/25 10:46:15;;;;;;;4.43;1.23;;;;;;;18.12;96.71;100681.69;5075844;28;20044;-78
2023/07/25 10:48:48;;;;;;;4.15;1.15;;;;;;;18.13;96.73;100680.78;5061625;28;20076;-77
2023/07/25 10:51:19;;;;;;;3.83;1.10;;;;;;;18.21;97.40;100681.41;5063243;28;20084;-79
2023/07/25 10:54:05;;;;;;;;;;;;;;;18.22;93.13;100685.81;5038454;28;20048;-78
2023/07/25 10:56:37;;;;;;;2.67;0.93;;;;;;;18.30;96.16;100683.78;5028161;28;19935;-77
2023/07/25 10:59:09;;;;;;;3.17;0.90;;;;;;;18.30;95.55;100683.78;5066788;28;20068;-79
2023/07/25 11:01:48;;;;;;;4.57;1.00;;;;;;;18.38;95.99;100677.34;5062495;28;20052;-77
2023/07/25 11:04:20;;;;;;;2.10;0.73;;;;;;;18.54;94.75;100680.38;5063252;28;20059;-78
2023/07/25 11:06:49;;;;;;;2.75;1.00;;;;;;;18.73;94.91;100685.97;5062988;28;20040;-79
2023/07/25 11:09:21;;;;;;;1.88;1.00;;;;;;;19.01;94.47;100675.28;5053515;28;20052;-79
2023/07/25 11:11:52;;;;;;;2.90;1.00;;;;;;;19.10;93.44;100669.63;5022078;28;20051;-78
2023/07/25 11:14:20;;;;;;;7.55;1.52;;;;;;;19.01;91.97;100684.16;5048900;28;20059;-77
2023/07/25 11:16:51;;;;;;;4.63;1.00;;;;;;;18.87;91.58;100679.28;5052141;28;20435;-78
2023/07/25 11:19:24;;;;;;;;;;;;;;;18.78;90.16;100687.56;5062787;28;20504;-78
2023/07/25 11:21:53;;;;;;;2.80;1.23;;;;;;;18.67;93.14;100687.06;5062925;28;19932;-79
2023/07/25 11:24:21;;;;;;;3.65;1.23;;;;;;;18.58;92.46;100682.91;5034343;28;20056;-79
2023/07/25 11:26:50;;;;;;;2.95;0.90;;;;;;;18.53;91.82;100683.97;5012829;28;20756;-79